Whitehorse, Canada
Current Conditions -  °F | °C
As of 2:00 AM on Thursday 29 Jan 2015 (Local Time) from CYXY Reporting Station
Light Snow Light Snow  
Wind Chill: -21°   Ceiling: 1700
Heat Index: -6°   Visibility: 2.5mi
Dew Point: -13°   Wind: 8mph
Humidity: 71%   Direction: 350°N
Pressure: 30.07"   Gusts: NA
Location:  60.72°N, 135.05°W
Report Text: CYXY 291000Z 35007KT 2 1/2SM -SN BKN017 OVC033 M21/M25 A3007 RMK SN2SC5SC1 /S04/ SLP260
Loading
Personal Weather Stations






























Interactive Weather Map New forecast layout! Learn more

10-Day Weather Forecast

Advertisements
Track Severe Weather on mobile